createdAt,value
2023-04-27T00:00:55.425Z,642.00
2023-04-27T00:01:55.504Z,640.00
2023-04-27T00:02:55.628Z,646.00
2023-04-27T00:03:55.612Z,641.00
2023-04-27T00:04:55.896Z,641.00
2023-04-27T00:05:55.737Z,641.00
2023-04-27T00:06:55.505Z,644.00
2023-04-27T00:07:55.529Z,642.00
2023-04-27T00:08:55.628Z,640.00
2023-04-27T00:09:56.078Z,644.00
2023-04-27T00:10:55.590Z,641.00
2023-04-27T00:11:55.586Z,642.00
2023-04-27T00:12:55.617Z,637.00
2023-04-27T00:13:55.624Z,633.00
2023-04-27T00:14:56.074Z,636.00
2023-04-27T00:15:55.690Z,631.00
2023-04-27T00:16:55.683Z,635.00
2023-04-27T00:17:55.756Z,634.00
2023-04-27T00:18:55.696Z,636.00
2023-04-27T00:19:55.725Z,635.00
2023-04-27T00:20:55.749Z,634.00
2023-04-27T00:21:55.750Z,638.00
2023-04-27T00:22:55.776Z,635.00
2023-04-27T00:23:55.797Z,632.00
2023-04-27T00:24:55.829Z,635.00
2023-04-27T00:25:55.821Z,635.00
2023-04-27T00:26:55.841Z,629.00
2023-04-27T00:27:55.884Z,631.00
2023-04-27T00:28:55.927Z,632.00
2023-04-27T00:29:56.090Z,634.00
2023-04-27T00:30:55.946Z,630.00
2023-04-27T00:31:55.969Z,634.00
2023-04-27T00:32:56.019Z,632.00
2023-04-27T00:33:55.976Z,634.00
2023-04-27T00:34:56.081Z,635.00
2023-04-27T00:35:55.981Z,636.00
2023-04-27T00:36:56.031Z,634.00
2023-04-27T00:37:56.052Z,631.00
2023-04-27T00:38:56.088Z,630.00
2023-04-27T00:39:56.097Z,633.00
2023-04-27T00:40:56.088Z,633.00
2023-04-27T00:41:56.132Z,630.00
2023-04-27T00:42:56.156Z,632.00
2023-04-27T00:43:56.144Z,632.00
2023-04-27T00:44:56.180Z,628.00
2023-04-27T00:45:56.273Z,635.00
2023-04-27T00:46:56.223Z,638.00
2023-04-27T00:47:56.304Z,639.00
2023-04-27T00:48:56.248Z,633.00
2023-04-27T00:49:56.279Z,635.00
2023-04-27T00:50:56.256Z,631.00
2023-04-27T00:51:56.271Z,628.00
2023-04-27T00:52:56.282Z,628.00
2023-04-27T00:53:56.330Z,629.00
2023-04-27T00:54:56.314Z,632.00
2023-04-27T00:55:56.326Z,633.00
2023-04-27T00:56:56.360Z,630.00
2023-04-27T00:57:56.427Z,629.00
2023-04-27T00:58:56.374Z,626.00
2023-04-27T00:59:56.414Z,628.00
2023-04-27T01:00:56.442Z,630.00
2023-04-27T01:01:56.447Z,636.00
2023-04-27T01:02:56.681Z,630.00
2023-04-27T01:03:56.618Z,628.00
2023-04-27T01:04:56.513Z,629.00
2023-04-27T01:05:56.471Z,624.00
2023-04-27T01:06:56.509Z,629.00
2023-04-27T01:07:56.519Z,630.00
2023-04-27T01:08:56.564Z,634.00
2023-04-27T01:09:56.590Z,632.00
2023-04-27T01:10:56.604Z,629.00
2023-04-27T01:11:56.620Z,629.00
2023-04-27T01:12:56.659Z,635.00
2023-04-27T01:13:56.680Z,628.00
2023-04-27T01:14:56.678Z,629.00
2023-04-27T01:15:56.679Z,628.00
2023-04-27T01:16:56.848Z,630.00
2023-04-27T01:17:56.792Z,626.00
2023-04-27T01:18:56.749Z,631.00
2023-04-27T01:19:56.805Z,627.00
2023-04-27T01:20:56.754Z,619.00
2023-04-27T01:21:56.796Z,625.00
2023-04-27T01:22:56.808Z,628.00
2023-04-27T01:23:56.851Z,622.00
2023-04-27T01:24:56.837Z,624.00
2023-04-27T01:25:56.852Z,624.00
2023-04-27T01:26:56.896Z,624.00
2023-04-27T01:27:56.895Z,624.00
2023-04-27T01:28:56.925Z,619.00
2023-04-27T01:29:56.960Z,625.00
2023-04-27T01:30:56.984Z,621.00
2023-04-27T01:31:56.976Z,624.00
2023-04-27T01:32:57.045Z,620.00
2023-04-27T01:33:57.010Z,623.00
2023-04-27T01:34:57.045Z,626.00
2023-04-27T01:35:57.069Z,622.00
2023-04-27T01:36:57.099Z,626.00
2023-04-27T01:37:57.116Z,626.00
2023-04-27T01:38:57.108Z,622.00
2023-04-27T01:39:57.158Z,624.00
2023-04-27T01:40:57.201Z,618.00
2023-04-27T01:41:58.534Z,622.00
2023-04-27T01:42:57.213Z,621.00
2023-04-27T01:43:57.239Z,619.00
2023-04-27T01:44:57.256Z,615.00
2023-04-27T01:45:57.316Z,620.00
2023-04-27T01:46:57.291Z,623.00
2023-04-27T01:47:57.381Z,623.00
2023-04-27T01:48:57.369Z,614.00
2023-04-27T01:49:57.381Z,615.00
2023-04-27T01:50:58.104Z,617.00
2023-04-27T01:51:57.367Z,624.00
2023-04-27T01:52:57.394Z,617.00
2023-04-27T01:53:57.431Z,622.00
2023-04-27T01:54:57.476Z,621.00
2023-04-27T01:55:57.467Z,621.00
2023-04-27T01:56:57.491Z,623.00
2023-04-27T01:57:57.516Z,621.00
2023-04-27T01:58:57.543Z,617.00
2023-04-27T01:59:57.596Z,617.00
2023-04-27T02:00:57.576Z,621.00
2023-04-27T02:01:57.713Z,617.00
2023-04-27T02:02:57.850Z,621.00
2023-04-27T02:03:57.885Z,617.00
2023-04-27T02:04:57.706Z,616.00
2023-04-27T02:05:57.724Z,615.00
2023-04-27T02:06:57.742Z,621.00
2023-04-27T02:07:57.758Z,620.00
2023-04-27T02:08:57.773Z,621.00
2023-04-27T02:09:57.786Z,616.00
2023-04-27T02:10:57.835Z,618.00
2023-04-27T02:11:57.841Z,617.00
2023-04-27T02:12:57.875Z,614.00
2023-04-27T02:13:57.897Z,617.00
2023-04-27T02:14:57.893Z,619.00
2023-04-27T02:15:57.962Z,616.00
2023-04-27T02:16:57.957Z,614.00
2023-04-27T02:17:58.011Z,616.00
2023-04-27T02:18:58.018Z,613.00
2023-04-27T02:19:58.012Z,615.00
2023-04-27T02:20:58.065Z,612.00
2023-04-27T02:21:58.089Z,619.00
2023-04-27T02:22:58.075Z,615.00
2023-04-27T02:23:58.131Z,615.00
2023-04-27T02:24:58.125Z,617.00
2023-04-27T02:25:58.173Z,611.00
2023-04-27T02:26:58.217Z,614.00
2023-04-27T02:27:58.211Z,613.00
2023-04-27T02:28:58.242Z,613.00
2023-04-27T02:29:58.280Z,616.00
2023-04-27T02:30:58.277Z,613.00
2023-04-27T02:31:58.366Z,609.00
2023-04-27T02:32:58.355Z,610.00
2023-04-27T02:33:58.323Z,611.00
2023-04-27T02:34:58.380Z,611.00
2023-04-27T02:35:58.402Z,613.00
2023-04-27T02:36:58.425Z,608.00
2023-04-27T02:37:58.410Z,613.00
2023-04-27T02:38:58.445Z,611.00
2023-04-27T02:39:58.473Z,611.00
2023-04-27T02:40:58.534Z,610.00
2023-04-27T02:41:58.531Z,609.00
2023-04-27T02:42:58.524Z,603.00
2023-04-27T02:43:58.571Z,603.00
2023-04-27T02:44:58.618Z,601.00
2023-04-27T02:45:58.614Z,604.00
2023-04-27T02:46:58.675Z,606.00
2023-04-27T02:47:58.698Z,607.00
2023-04-27T02:48:58.701Z,609.00
2023-04-27T02:49:58.702Z,603.00
2023-04-27T02:50:58.754Z,605.00
2023-04-27T02:51:58.759Z,608.00
2023-04-27T02:52:58.769Z,603.00
2023-04-27T02:53:58.802Z,603.00
2023-04-27T02:54:58.831Z,605.00
2023-04-27T02:55:58.871Z,603.00
2023-04-27T02:56:58.901Z,607.00
2023-04-27T02:57:58.901Z,605.00
2023-04-27T02:58:58.959Z,600.00
2023-04-27T02:59:58.980Z,604.00
2023-04-27T03:00:59.024Z,606.00
2023-04-27T03:01:59.031Z,602.00
2023-04-27T03:02:59.196Z,602.00
2023-04-27T03:03:59.209Z,600.00
2023-04-27T03:04:59.139Z,601.00
2023-04-27T03:05:59.175Z,602.00
2023-04-27T03:06:59.173Z,602.00
2023-04-27T03:07:59.221Z,600.00
2023-04-27T03:08:59.244Z,600.00
2023-04-27T03:09:59.278Z,603.00
2023-04-27T03:10:59.341Z,600.00
2023-04-27T03:11:59.362Z,596.00
2023-04-27T03:12:59.355Z,598.00
2023-04-27T03:13:59.432Z,597.00
2023-04-27T03:14:59.458Z,599.00
2023-04-27T03:15:59.506Z,602.00
2023-04-27T03:16:59.509Z,601.00
2023-04-27T03:17:59.548Z,598.00
2023-04-27T03:18:59.558Z,599.00
2023-04-27T03:19:59.614Z,597.00
2023-04-27T03:20:59.636Z,597.00
2023-04-27T03:21:59.664Z,602.00
2023-04-27T03:22:59.696Z,596.00
2023-04-27T03:23:59.736Z,593.00
2023-04-27T03:24:59.789Z,598.00
2023-04-27T03:25:59.788Z,594.00
2023-04-27T03:26:59.818Z,597.00
2023-04-27T03:27:59.946Z,598.00
2023-04-27T03:28:59.923Z,596.00
2023-04-27T03:30:00.169Z,599.00
2023-04-27T03:30:59.954Z,596.00
2023-04-27T03:32:00.049Z,593.00
2023-04-27T03:33:00.061Z,595.00
2023-04-27T03:34:00.064Z,596.00
2023-04-27T03:35:00.156Z,594.00
2023-04-27T03:36:00.157Z,601.00
2023-04-27T03:37:00.176Z,598.00
2023-04-27T03:38:00.203Z,598.00
2023-04-27T03:39:00.254Z,594.00
2023-04-27T03:40:00.285Z,589.00
2023-04-27T03:41:00.339Z,592.00
2023-04-27T03:42:00.339Z,596.00
2023-04-27T03:43:00.408Z,600.00
2023-04-27T03:44:00.432Z,590.00
2023-04-27T03:45:00.468Z,592.00
2023-04-27T03:46:00.479Z,593.00
2023-04-27T03:47:00.532Z,593.00
2023-04-27T03:48:00.736Z,594.00
2023-04-27T03:49:00.608Z,591.00
2023-04-27T03:50:00.638Z,590.00
2023-04-27T03:51:00.668Z,594.00
2023-04-27T03:52:00.715Z,595.00
2023-04-27T03:53:00.725Z,593.00
2023-04-27T03:54:00.757Z,586.00
2023-04-27T03:55:00.805Z,589.00
2023-04-27T03:56:00.856Z,588.00
2023-04-27T03:57:00.884Z,584.00
2023-04-27T03:58:00.931Z,590.00
2023-04-27T03:59:00.974Z,591.00
2023-04-27T04:00:01.128Z,589.00
2023-04-27T04:01:01.049Z,585.00
2023-04-27T04:02:01.497Z,589.00
2023-04-27T04:03:01.291Z,592.00
2023-04-27T04:04:01.291Z,591.00
2023-04-27T04:05:01.267Z,590.00
2023-04-27T04:06:01.226Z,585.00
2023-04-27T04:07:01.249Z,588.00
2023-04-27T04:08:01.318Z,590.00
2023-04-27T04:09:01.396Z,592.00
2023-04-27T04:10:01.350Z,595.00
2023-04-27T04:11:01.407Z,585.00
2023-04-27T04:12:01.439Z,588.00
2023-04-27T04:13:01.449Z,591.00
2023-04-27T04:14:01.526Z,585.00
2023-04-27T04:15:01.600Z,590.00
2023-04-27T04:16:01.694Z,586.00
2023-04-27T04:17:01.666Z,586.00
2023-04-27T04:18:01.675Z,585.00
2023-04-27T04:19:01.731Z,588.00
2023-04-27T04:20:01.753Z,590.00
2023-04-27T04:21:01.813Z,588.00
2023-04-27T04:22:01.819Z,595.00
2023-04-27T04:23:01.852Z,583.00
2023-04-27T04:24:01.905Z,588.00
2023-04-27T04:25:01.952Z,590.00
2023-04-27T04:26:02.009Z,589.00
2023-04-27T04:27:02.019Z,594.00
2023-04-27T04:28:02.079Z,587.00
2023-04-27T04:29:02.102Z,589.00
2023-04-27T04:30:02.157Z,591.00
2023-04-27T04:31:02.291Z,592.00
2023-04-27T04:32:02.233Z,590.00
2023-04-27T04:33:02.311Z,585.00
2023-04-27T04:34:02.314Z,592.00
2023-04-27T04:35:02.307Z,588.00
2023-04-27T04:36:02.371Z,593.00
2023-04-27T04:37:02.427Z,588.00
2023-04-27T04:38:02.431Z,593.00
2023-04-27T04:39:02.470Z,596.00
2023-04-27T04:40:02.510Z,593.00
2023-04-27T04:41:02.582Z,594.00
2023-04-27T04:42:02.614Z,590.00
2023-04-27T04:43:02.620Z,589.00
2023-04-27T04:44:02.659Z,591.00
2023-04-27T04:45:02.714Z,593.00
2023-04-27T04:46:02.755Z,595.00
2023-04-27T04:47:02.915Z,582.00
2023-04-27T04:48:02.889Z,587.00
2023-04-27T04:49:02.871Z,587.00
2023-04-27T04:50:02.896Z,589.00
2023-04-27T04:51:02.908Z,584.00
2023-04-27T04:52:02.960Z,586.00
2023-04-27T04:53:02.988Z,584.00
2023-04-27T04:54:03.040Z,584.00
2023-04-27T04:55:03.067Z,583.00
2023-04-27T04:56:03.105Z,581.00
2023-04-27T04:57:03.126Z,582.00
2023-04-27T04:58:03.193Z,581.00
2023-04-27T04:59:03.246Z,580.00
2023-04-27T05:00:03.286Z,585.00
2023-04-27T05:01:03.338Z,585.00
2023-04-27T05:02:03.375Z,586.00
2023-04-27T05:03:03.440Z,584.00
2023-04-27T05:04:03.562Z,586.00
2023-04-27T05:05:03.504Z,581.00
2023-04-27T05:06:03.511Z,584.00
2023-04-27T05:07:03.539Z,584.00
2023-04-27T05:08:03.598Z,584.00
2023-04-27T05:09:03.608Z,579.00
2023-04-27T05:10:04.168Z,581.00
2023-04-27T05:11:03.742Z,586.00
2023-04-27T05:12:03.735Z,583.00
2023-04-27T05:14:03.860Z,579.00
2023-04-27T05:15:03.842Z,580.00
2023-04-27T05:16:03.927Z,580.00
2023-04-27T05:17:03.920Z,579.00
2023-04-27T05:18:04.032Z,580.00
2023-04-27T05:19:03.996Z,577.00
2023-04-27T05:20:04.064Z,576.00
2023-04-27T05:21:04.129Z,578.00
2023-04-27T05:22:04.137Z,578.00
2023-04-27T05:23:04.173Z,579.00
2023-04-27T05:24:04.190Z,580.00
2023-04-27T05:25:04.242Z,578.00
2023-04-27T05:26:04.286Z,575.00
2023-04-27T05:27:04.303Z,579.00
2023-04-27T05:28:04.360Z,579.00
2023-04-27T05:29:04.404Z,579.00
2023-04-27T05:30:04.452Z,581.00
2023-04-27T05:31:04.457Z,580.00
2023-04-27T05:32:04.505Z,573.00
2023-04-27T05:33:04.560Z,578.00
2023-04-27T05:34:04.614Z,576.00
2023-04-27T05:35:04.627Z,573.00
2023-04-27T05:36:05.176Z,577.00
2023-04-27T05:37:04.694Z,575.00
2023-04-27T05:38:04.742Z,575.00
2023-04-27T05:39:04.789Z,577.00
2023-04-27T05:40:04.835Z,578.00
2023-04-27T05:41:04.876Z,580.00
2023-04-27T05:42:04.914Z,572.00
2023-04-27T05:43:04.958Z,575.00
2023-04-27T05:44:05.043Z,574.00
2023-04-27T05:45:05.080Z,575.00
2023-04-27T05:46:05.146Z,579.00
2023-04-27T05:47:05.125Z,577.00
2023-04-27T05:48:05.239Z,580.00
2023-04-27T05:49:05.246Z,581.00
2023-04-27T05:50:05.285Z,577.00
2023-04-27T05:51:05.704Z,568.00
2023-04-27T05:52:05.327Z,590.00
2023-04-27T05:53:05.365Z,576.00
2023-04-27T05:54:05.424Z,578.00
2023-04-27T05:55:05.458Z,581.00
2023-04-27T05:56:05.489Z,582.00
2023-04-27T05:57:05.525Z,575.00
2023-04-27T05:58:08.946Z,574.00
2023-04-27T05:59:05.595Z,555.00
2023-04-27T06:00:05.533Z,567.00
2023-04-27T06:01:05.679Z,551.00
2023-04-27T06:02:05.632Z,543.00
2023-04-27T06:03:05.662Z,562.00
2023-04-27T06:04:05.667Z,576.00
2023-04-27T06:05:05.522Z,602.00
2023-04-27T06:06:05.526Z,614.00
2023-04-27T06:07:05.489Z,601.00
2023-04-27T06:08:05.523Z,607.00
2023-04-27T06:09:05.472Z,620.00
2023-04-27T06:10:05.507Z,604.00
2023-04-27T06:11:05.501Z,630.00
2023-04-27T06:12:05.495Z,613.00
2023-04-27T06:13:05.476Z,581.00
2023-04-27T06:14:05.461Z,565.00
2023-04-27T06:15:05.452Z,560.00
2023-04-27T06:16:05.500Z,557.00
2023-04-27T06:17:05.463Z,535.00
2023-04-27T06:18:05.501Z,519.00
2023-04-27T06:19:05.443Z,554.00
2023-04-27T06:20:05.426Z,545.00
2023-04-27T06:21:05.697Z,533.00
2023-04-27T06:22:05.401Z,529.00
2023-04-27T06:23:05.399Z,529.00
2023-04-27T06:24:05.370Z,533.00
2023-04-27T06:25:05.396Z,536.00
2023-04-27T06:26:05.359Z,533.00
2023-04-27T06:27:05.407Z,525.00
2023-04-27T06:28:05.380Z,527.00
2023-04-27T06:29:05.371Z,530.00
2023-04-27T06:30:05.363Z,534.00
2023-04-27T06:31:05.408Z,543.00
2023-04-27T06:32:05.340Z,541.00
2023-04-27T06:33:05.434Z,536.00
2023-04-27T06:34:05.319Z,537.00
2023-04-27T06:35:05.326Z,548.00
2023-04-27T06:36:05.714Z,546.00
2023-04-27T06:37:05.296Z,536.00
2023-04-27T06:38:07.578Z,527.00
2023-04-27T06:39:05.272Z,535.00
2023-04-27T06:40:05.291Z,534.00
2023-04-27T06:41:05.250Z,549.00
2023-04-27T06:42:05.264Z,537.00
2023-04-27T06:43:05.256Z,532.00
2023-04-27T06:44:05.251Z,541.00
2023-04-27T06:45:05.244Z,548.00
2023-04-27T06:46:05.369Z,539.00
2023-04-27T06:47:05.260Z,550.00
2023-04-27T06:48:05.254Z,548.00
2023-04-27T06:49:05.244Z,541.00
2023-04-27T06:50:05.211Z,541.00
2023-04-27T06:51:05.731Z,541.00
2023-04-27T06:52:05.194Z,560.00
2023-04-27T06:53:05.217Z,590.00
2023-04-27T06:54:05.181Z,560.00
2023-04-27T06:55:05.180Z,579.00
2023-04-27T06:56:05.199Z,594.00
2023-04-27T06:57:05.153Z,570.00
2023-04-27T06:58:05.217Z,531.00
2023-04-27T06:59:05.177Z,554.00
2023-04-27T07:00:05.139Z,580.00
2023-04-27T07:01:05.245Z,580.00
2023-04-27T07:02:05.136Z,546.00
2023-04-27T07:03:05.201Z,544.00
2023-04-27T07:04:05.202Z,540.00
2023-04-27T07:05:05.157Z,540.00
2023-04-27T07:06:05.099Z,542.00
2023-04-27T07:07:05.129Z,534.00
2023-04-27T07:08:07.783Z,549.00
2023-04-27T07:09:13.190Z,550.00
2023-04-27T07:10:06.098Z,550.00
2023-04-27T07:11:05.099Z,548.00
2023-04-27T07:12:05.050Z,554.00
2023-04-27T07:13:07.320Z,560.00
2023-04-27T07:14:05.059Z,549.00
2023-04-27T07:15:05.033Z,549.00
2023-04-27T07:16:05.087Z,524.00
2023-04-27T07:17:05.022Z,467.00
2023-04-27T07:18:05.071Z,450.00
2023-04-27T07:19:05.024Z,480.00
2023-04-27T07:20:04.975Z,500.00
2023-04-27T07:21:04.995Z,505.00
2023-04-27T07:22:04.992Z,500.00
2023-04-27T07:23:04.982Z,504.00
2023-04-27T07:24:04.974Z,503.00
2023-04-27T07:25:04.954Z,500.00
2023-04-27T07:26:05.200Z,509.00
2023-04-27T07:27:04.966Z,507.00
2023-04-27T07:28:04.941Z,508.00
2023-04-27T07:29:14.518Z,508.00
2023-04-27T07:30:05.907Z,508.00
2023-04-27T07:31:04.926Z,499.00
2023-04-27T07:32:04.940Z,501.00
2023-04-27T07:33:04.965Z,497.00
2023-04-27T07:34:04.894Z,496.00
2023-04-27T07:35:04.884Z,501.00
2023-04-27T07:36:05.226Z,502.00
2023-04-27T07:37:04.895Z,505.00
2023-04-27T07:38:04.848Z,500.00
2023-04-27T07:39:04.852Z,503.00
2023-04-27T07:40:04.901Z,500.00
2023-04-27T07:41:04.984Z,500.00
2023-04-27T07:42:05.038Z,500.00
2023-04-27T07:43:05.094Z,501.00
2023-04-27T07:44:05.134Z,508.00
2023-04-27T07:45:05.201Z,510.00
2023-04-27T07:46:05.833Z,544.00
2023-04-27T07:47:05.350Z,547.00
2023-04-27T07:48:05.409Z,523.00
2023-04-27T07:49:05.472Z,517.00
2023-04-27T07:50:05.506Z,519.00
2023-04-27T07:51:05.598Z,535.00
2023-04-27T07:52:05.624Z,593.00
2023-04-27T07:53:05.671Z,626.00
2023-04-27T07:54:05.733Z,609.00
2023-04-27T07:55:05.782Z,613.00
2023-04-27T07:56:05.862Z,640.00
2023-04-27T07:57:05.886Z,668.00
2023-04-27T07:58:05.951Z,657.00
2023-04-27T07:59:05.991Z,650.00
2023-04-27T08:00:06.024Z,688.00
2023-04-27T08:01:06.074Z,741.00
2023-04-27T08:02:18.378Z,720.00
2023-04-27T08:03:07.263Z,722.00
2023-04-27T08:04:06.482Z,727.00
2023-04-27T08:05:06.239Z,746.00
2023-04-27T08:06:06.270Z,796.00
2023-04-27T08:07:06.853Z,861.00
2023-04-27T08:08:06.281Z,859.00
2023-04-27T08:09:06.268Z,865.00
2023-04-27T08:10:06.049Z,861.00
2023-04-27T08:11:06.044Z,871.00
2023-04-27T08:12:06.054Z,859.00
2023-04-27T08:13:06.035Z,883.00
2023-04-27T08:14:06.052Z,901.00
2023-04-27T08:15:06.017Z,897.00
2023-04-27T08:16:06.129Z,915.00
2023-04-27T08:17:06.168Z,911.00
2023-04-27T08:18:06.147Z,929.00
2023-04-27T08:19:06.128Z,950.00
2023-04-27T08:20:06.162Z,973.00
2023-04-27T08:21:06.161Z,982.00
2023-04-27T08:22:06.179Z,970.00
2023-04-27T08:23:06.198Z,978.00
2023-04-27T08:24:06.189Z,982.00
2023-04-27T08:25:06.200Z,996.00
2023-04-27T08:26:06.705Z,988.00
2023-04-27T08:27:06.246Z,1000.00
2023-04-27T08:28:06.256Z,994.00
2023-04-27T08:29:15.246Z,995.00
2023-04-27T08:30:07.285Z,996.00
2023-04-27T08:31:06.300Z,965.00
2023-04-27T08:32:06.224Z,941.00
2023-04-27T08:33:06.380Z,996.00
2023-04-27T08:34:06.229Z,964.00
2023-04-27T08:35:06.212Z,1002.00
2023-04-27T08:36:06.219Z,1029.00
2023-04-27T08:37:06.185Z,1017.00
2023-04-27T08:38:06.184Z,1029.00
2023-04-27T08:39:06.186Z,1029.00
2023-04-27T08:40:06.179Z,1034.00
2023-04-27T08:41:18.359Z,1026.00
2023-04-27T08:42:07.172Z,1027.00
2023-04-27T08:43:06.155Z,1028.00
2023-04-27T08:44:06.168Z,1000.00
2023-04-27T08:45:06.126Z,1026.00
2023-04-27T08:46:06.161Z,970.00
2023-04-27T08:47:06.121Z,923.00
2023-04-27T08:48:06.158Z,934.00
2023-04-27T08:49:06.118Z,1008.00
2023-04-27T08:50:06.138Z,1052.00
2023-04-27T08:51:06.111Z,1023.00
2023-04-27T08:52:06.068Z,1007.00
2023-04-27T08:53:06.089Z,1055.00
2023-04-27T08:54:06.092Z,1049.00
2023-04-27T08:55:06.069Z,1067.00
2023-04-27T08:56:06.062Z,1026.00
2023-04-27T08:57:06.021Z,1017.00
2023-04-27T08:58:06.056Z,973.00
2023-04-27T08:59:06.037Z,969.00
2023-04-27T09:00:06.020Z,967.00
2023-04-27T09:01:06.007Z,921.00
2023-04-27T09:02:06.109Z,924.00
2023-04-27T09:03:06.131Z,889.00
2023-04-27T09:04:06.350Z,866.00
2023-04-27T09:05:06.145Z,817.00
2023-04-27T09:06:06.378Z,825.00
2023-04-27T09:07:06.131Z,839.00
2023-04-27T09:08:06.133Z,830.00
2023-04-27T09:09:06.164Z,815.00
2023-04-27T09:10:06.195Z,821.00
2023-04-27T09:11:06.225Z,772.00
2023-04-27T09:12:06.267Z,743.00
2023-04-27T09:13:06.306Z,737.00
2023-04-27T09:14:06.322Z,672.00
2023-04-27T09:15:06.507Z,685.00
2023-04-27T09:16:06.467Z,685.00
2023-04-27T09:17:06.467Z,673.00
2023-04-27T09:18:06.548Z,648.00
2023-04-27T09:19:06.533Z,647.00
2023-04-27T09:20:06.559Z,637.00
2023-04-27T09:21:06.635Z,659.00
2023-04-27T09:22:06.666Z,658.00
2023-04-27T09:23:06.712Z,665.00
2023-04-27T09:24:06.741Z,654.00
2023-04-27T09:25:06.795Z,654.00
2023-04-27T09:26:06.826Z,654.00
2023-04-27T09:27:06.915Z,658.00
2023-04-27T09:28:06.948Z,660.00
2023-04-27T09:29:07.102Z,657.00
2023-04-27T09:30:07.042Z,646.00
2023-04-27T09:31:07.131Z,655.00
2023-04-27T09:32:07.139Z,653.00
2023-04-27T09:33:07.268Z,650.00
2023-04-27T09:34:07.238Z,658.00
2023-04-27T09:35:07.258Z,657.00
2023-04-27T09:36:07.321Z,656.00
2023-04-27T09:37:07.354Z,652.00
2023-04-27T09:38:07.410Z,658.00
2023-04-27T09:39:07.413Z,661.00
2023-04-27T09:40:07.451Z,653.00
2023-04-27T09:41:07.544Z,642.00
2023-04-27T09:42:07.582Z,653.00
2023-04-27T09:43:07.632Z,665.00
2023-04-27T09:44:07.749Z,651.00
2023-04-27T09:45:07.760Z,655.00
2023-04-27T09:46:08.310Z,666.00
2023-04-27T09:47:07.837Z,686.00
2023-04-27T09:48:07.911Z,660.00
2023-04-27T09:49:07.906Z,660.00
2023-04-27T09:50:07.928Z,714.00
2023-04-27T09:51:08.232Z,758.00
2023-04-27T09:52:08.035Z,792.00
2023-04-27T09:53:08.059Z,835.00
2023-04-27T09:54:08.092Z,831.00
2023-04-27T09:55:08.151Z,827.00
2023-04-27T09:56:08.228Z,847.00
2023-04-27T09:57:08.226Z,843.00
2023-04-27T09:58:08.283Z,855.00
2023-04-27T09:59:08.295Z,845.00
2023-04-27T10:00:08.368Z,836.00
2023-04-27T10:01:08.395Z,853.00
2023-04-27T10:02:23.560Z,849.00
2023-04-27T10:03:09.491Z,850.00
2023-04-27T10:04:08.524Z,850.00
2023-04-27T10:05:08.417Z,851.00
2023-04-27T10:06:08.427Z,856.00
2023-04-27T10:07:08.394Z,859.00
2023-04-27T10:08:08.406Z,846.00
2023-04-27T10:09:08.371Z,843.00
2023-04-27T10:10:08.331Z,853.00
2023-04-27T10:11:08.338Z,867.00
2023-04-27T10:12:08.354Z,870.00
2023-04-27T10:13:08.348Z,862.00
2023-04-27T10:14:08.339Z,871.00
2023-04-27T10:15:08.313Z,871.00
2023-04-27T10:16:08.336Z,876.00
2023-04-27T10:17:08.331Z,872.00
2023-04-27T10:18:08.406Z,863.00
2023-04-27T10:19:08.385Z,877.00
2023-04-27T10:20:08.415Z,872.00
2023-04-27T10:21:08.437Z,877.00
2023-04-27T10:22:08.495Z,861.00
2023-04-27T10:23:08.479Z,865.00
2023-04-27T10:24:08.521Z,879.00
2023-04-27T10:25:08.545Z,864.00
2023-04-27T10:26:08.744Z,882.00
2023-04-27T10:27:08.563Z,877.00
2023-04-27T10:28:08.641Z,877.00
2023-04-27T10:29:08.626Z,902.00
2023-04-27T10:30:08.671Z,888.00
2023-04-27T10:31:08.779Z,894.00
2023-04-27T10:32:08.707Z,900.00
2023-04-27T10:33:08.994Z,902.00
2023-04-27T10:34:08.743Z,916.00
2023-04-27T10:35:08.801Z,906.00
2023-04-27T10:36:08.775Z,918.00
2023-04-27T10:37:08.813Z,921.00
2023-04-27T10:38:08.811Z,922.00
2023-04-27T10:39:08.847Z,915.00
2023-04-27T10:40:08.833Z,813.00
2023-04-27T10:41:08.871Z,759.00
2023-04-27T10:42:08.841Z,896.00
2023-04-27T10:43:08.877Z,915.00
2023-04-27T10:44:08.863Z,899.00
2023-04-27T10:45:08.871Z,947.00
2023-04-27T10:46:08.905Z,896.00
2023-04-27T10:47:08.870Z,770.00
2023-04-27T10:48:08.923Z,765.00
2023-04-27T10:49:08.889Z,850.00
2023-04-27T10:50:08.913Z,870.00
2023-04-27T10:51:08.888Z,834.00
2023-04-27T10:52:08.874Z,786.00
2023-04-27T10:53:08.916Z,723.00
2023-04-27T10:54:08.894Z,732.00
2023-04-27T10:55:08.904Z,738.00
2023-04-27T10:56:08.900Z,778.00
2023-04-27T10:57:08.947Z,781.00
2023-04-27T10:58:08.988Z,770.00
2023-04-27T10:59:09.011Z,764.00
2023-04-27T11:00:09.061Z,781.00
2023-04-27T11:01:09.238Z,776.00
2023-04-27T11:02:09.270Z,901.00
2023-04-27T11:03:09.390Z,1010.00
2023-04-27T11:04:09.404Z,987.00
2023-04-27T11:05:09.493Z,934.00
2023-04-27T11:06:09.461Z,933.00
2023-04-27T11:07:09.780Z,914.00
2023-04-27T11:08:09.561Z,882.00
2023-04-27T11:09:09.614Z,843.00
2023-04-27T11:10:09.688Z,845.00
2023-04-27T11:11:09.726Z,860.00
2023-04-27T11:12:09.813Z,848.00
2023-04-27T11:13:09.824Z,839.00
2023-04-27T11:14:09.842Z,862.00
2023-04-27T11:15:09.873Z,854.00
2023-04-27T11:16:09.942Z,887.00
2023-04-27T11:17:10.269Z,846.00
2023-04-27T11:18:09.961Z,853.00
2023-04-27T11:19:10.000Z,857.00
2023-04-27T11:20:10.054Z,835.00
2023-04-27T11:21:10.111Z,835.00
2023-04-27T11:22:10.102Z,862.00
2023-04-27T11:23:10.106Z,917.00
2023-04-27T11:24:10.535Z,927.00
2023-04-27T11:25:10.196Z,892.00
2023-04-27T11:26:10.214Z,850.00
2023-04-27T11:27:10.210Z,826.00
2023-04-27T11:28:10.221Z,862.00
2023-04-27T11:29:10.273Z,894.00
2023-04-27T11:30:10.289Z,885.00
2023-04-27T11:31:10.291Z,920.00
2023-04-27T11:32:10.329Z,901.00
2023-04-27T11:33:10.371Z,876.00
2023-04-27T11:34:10.335Z,866.00
2023-04-27T11:35:10.347Z,881.00
2023-04-27T11:36:10.346Z,881.00
2023-04-27T11:37:18.399Z,898.00
2023-04-27T11:38:11.354Z,908.00
2023-04-27T11:39:10.474Z,920.00
2023-04-27T11:40:10.353Z,946.00
2023-04-27T11:41:10.311Z,954.00
2023-04-27T11:42:10.334Z,991.00
2023-04-27T11:43:10.358Z,1027.00
2023-04-27T11:44:10.325Z,1045.00
2023-04-27T11:45:10.312Z,1033.00
2023-04-27T11:46:10.315Z,1078.00
2023-04-27T11:47:10.334Z,1124.00
2023-04-27T11:48:10.322Z,1129.00
2023-04-27T11:49:10.306Z,1116.00
2023-04-27T11:50:10.296Z,1124.00
2023-04-27T11:51:10.312Z,1127.00
2023-04-27T11:52:10.300Z,1115.00
2023-04-27T11:53:10.259Z,1110.00
2023-04-27T11:54:10.258Z,1113.00
2023-04-27T11:55:10.263Z,1109.00
2023-04-27T11:56:10.257Z,1140.00
2023-04-27T11:57:10.310Z,1139.00
2023-04-27T11:58:10.332Z,1106.00
2023-04-27T11:59:10.389Z,1135.00
2023-04-27T12:00:10.423Z,1131.00
2023-04-27T12:01:10.520Z,1122.00
2023-04-27T12:02:10.583Z,1109.00
2023-04-27T12:03:10.801Z,1110.00
2023-04-27T12:04:10.863Z,1113.00
2023-04-27T12:05:10.982Z,1118.00
2023-04-27T12:06:31.505Z,1052.00
2023-04-27T12:07:11.716Z,1053.00
2023-04-27T12:08:10.711Z,1056.00
2023-04-27T12:09:10.798Z,1055.00
2023-04-27T12:10:10.702Z,1028.00
2023-04-27T12:11:10.705Z,1040.00
2023-04-27T12:12:10.685Z,1043.00
2023-04-27T12:13:10.661Z,1033.00
2023-04-27T12:14:10.653Z,1051.00
2023-04-27T12:15:10.701Z,1057.00
2023-04-27T12:16:10.713Z,1090.00
2023-04-27T12:17:10.841Z,1080.00
2023-04-27T12:18:10.844Z,1056.00
2023-04-27T12:19:10.905Z,1040.00
2023-04-27T12:20:10.923Z,1015.00
2023-04-27T12:21:11.028Z,1044.00
2023-04-27T12:22:11.051Z,1012.00
2023-04-27T12:23:11.099Z,1026.00
2023-04-27T12:24:11.287Z,1024.00
2023-04-27T12:25:11.264Z,1050.00
2023-04-27T12:26:12.348Z,1060.00
2023-04-27T12:27:11.360Z,1064.00
2023-04-27T12:28:11.386Z,1056.00